createdAt,value
2019-06-26T00:00:10.667Z,12.67
2019-06-26T00:02:39.082Z,11.80
2019-06-26T00:05:09.095Z,13.83
2019-06-26T00:07:37.526Z,13.63
2019-06-26T00:10:06.369Z,15.87
2019-06-26T00:12:34.849Z,12.87
2019-06-26T00:15:04.434Z,14.27
2019-06-26T00:17:32.850Z,14.00
2019-06-26T00:20:01.267Z,12.23
2019-06-26T00:22:29.831Z,13.20
2019-06-26T00:24:58.238Z,12.83
2019-06-26T00:27:26.663Z,13.23
2019-06-26T00:29:55.054Z,12.57
2019-06-26T00:32:23.473Z,13.07
2019-06-26T00:34:51.898Z,13.33
2019-06-26T00:37:20.305Z,13.70
2019-06-26T00:39:48.725Z,14.33
2019-06-26T00:42:17.136Z,13.93
2019-06-26T00:44:45.550Z,13.83
2019-06-26T00:47:13.969Z,14.47
2019-06-26T00:49:42.382Z,15.10
2019-06-26T00:52:10.805Z,14.63
2019-06-26T00:54:39.209Z,15.10
2019-06-26T00:57:07.622Z,14.70
2019-06-26T00:59:36.042Z,16.83
2019-06-26T01:02:04.525Z,15.03
2019-06-26T01:04:40.537Z,16.07
2019-06-26T01:07:08.960Z,15.27
2019-06-26T01:09:37.358Z,16.97
2019-06-26T01:12:05.850Z,14.60
2019-06-26T01:14:34.252Z,15.33
2019-06-26T01:17:02.783Z,14.13
2019-06-26T01:19:31.302Z,14.43
2019-06-26T01:21:59.754Z,14.30
2019-06-26T01:24:28.170Z,17.40
2019-06-26T01:26:56.599Z,13.17
2019-06-26T01:29:25.003Z,13.30
2019-06-26T01:31:53.432Z,14.30
2019-06-26T01:34:21.847Z,13.40
2019-06-26T01:36:50.287Z,13.13
2019-06-26T01:39:18.714Z,12.90
2019-06-26T01:41:47.142Z,13.93
2019-06-26T01:44:15.852Z,13.20
2019-06-26T01:46:44.881Z,14.60
2019-06-26T01:49:13.287Z,13.10
2019-06-26T01:51:41.750Z,14.10
2019-06-26T01:54:10.236Z,14.03
2019-06-26T01:56:38.660Z,14.90
2019-06-26T01:59:07.077Z,14.10
2019-06-26T02:01:35.564Z,14.23
2019-06-26T02:04:03.967Z,14.30
2019-06-26T02:06:32.404Z,15.53
2019-06-26T02:09:00.851Z,15.77
2019-06-26T02:11:29.316Z,16.37
2019-06-26T02:13:57.716Z,15.80
2019-06-26T02:16:26.145Z,15.33
2019-06-26T02:18:56.210Z,15.00
2019-06-26T02:21:24.753Z,14.03
2019-06-26T02:23:53.171Z,14.80
2019-06-26T02:26:21.595Z,14.80
2019-06-26T02:28:49.988Z,13.70
2019-06-26T02:31:18.397Z,14.67
2019-06-26T02:33:46.809Z,15.57
2019-06-26T02:36:15.219Z,15.00
2019-06-26T02:38:43.621Z,15.03
2019-06-26T02:41:12.058Z,15.50
2019-06-26T02:43:40.560Z,14.73
2019-06-26T02:46:09.060Z,14.67
2019-06-26T02:48:37.489Z,14.60
2019-06-26T02:51:05.909Z,15.00
2019-06-26T02:53:34.338Z,15.43
2019-06-26T02:56:02.780Z,16.10
2019-06-26T02:58:31.244Z,15.77
2019-06-26T03:00:59.683Z,16.23
2019-06-26T03:03:28.151Z,15.73
2019-06-26T03:05:56.662Z,15.07
2019-06-26T03:08:25.151Z,14.07
2019-06-26T03:10:53.570Z,14.47
2019-06-26T03:13:22.046Z,14.27
2019-06-26T03:15:50.889Z,14.93
2019-06-26T03:18:19.539Z,15.33
2019-06-26T03:20:55.881Z,15.20
2019-06-26T03:23:25.116Z,15.00
2019-06-26T03:25:53.591Z,14.70
2019-06-26T03:28:22.032Z,15.73
2019-06-26T03:30:50.460Z,14.37
2019-06-26T03:33:18.927Z,14.67
2019-06-26T03:35:47.361Z,14.63
2019-06-26T03:38:15.882Z,15.53
2019-06-26T03:40:44.315Z,14.53
2019-06-26T03:43:12.785Z,15.93
2019-06-26T03:45:41.276Z,15.80
2019-06-26T03:48:09.829Z,15.17
2019-06-26T03:50:38.327Z,15.87
2019-06-26T03:53:06.906Z,15.63
2019-06-26T03:55:35.376Z,15.33
2019-06-26T03:58:03.851Z,15.00
2019-06-26T04:00:40.887Z,14.73
2019-06-26T04:03:09.718Z,14.73
2019-06-26T04:05:38.535Z,15.67
2019-06-26T04:08:07.665Z,15.20
2019-06-26T04:10:36.376Z,15.67
2019-06-26T04:13:05.261Z,15.37
2019-06-26T04:15:41.902Z,15.87
2019-06-26T04:18:03.987Z,14.43
2019-06-26T04:20:32.493Z,15.50
2019-06-26T04:23:00.988Z,14.90
2019-06-26T04:25:29.481Z,15.87
2019-06-26T04:27:59.214Z,15.93
2019-06-26T04:30:27.690Z,16.37
2019-06-26T04:32:56.201Z,16.17
2019-06-26T04:35:24.637Z,17.17
2019-06-26T04:37:53.083Z,16.03
2019-06-26T04:40:22.498Z,16.17
2019-06-26T04:42:51.016Z,16.50
2019-06-26T04:45:19.667Z,16.70
2019-06-26T04:47:48.125Z,15.57
2019-06-26T04:50:17.194Z,16.60
2019-06-26T04:52:45.644Z,15.87
2019-06-26T04:55:14.618Z,15.70
2019-06-26T04:57:43.092Z,16.53
2019-06-26T05:00:13.545Z,16.50
2019-06-26T05:02:42.033Z,15.60
2019-06-26T05:05:11.000Z,18.03
2019-06-26T05:07:39.457Z,17.40
2019-06-26T05:10:09.015Z,17.67
2019-06-26T05:12:37.473Z,17.50
2019-06-26T05:15:07.951Z,17.47
2019-06-26T05:17:36.462Z,18.13
2019-06-26T05:20:09.047Z,17.03
2019-06-26T05:22:37.617Z,18.90
2019-06-26T05:25:07.689Z,18.53
2019-06-26T05:27:36.309Z,16.93
2019-06-26T05:30:08.259Z,17.60
2019-06-26T05:32:36.697Z,18.10
2019-06-26T05:35:08.794Z,18.97
2019-06-26T05:37:37.268Z,19.03
2019-06-26T05:40:14.726Z,20.73
2019-06-26T05:42:43.138Z,27.50
2019-06-26T05:45:13.345Z,20.87
2019-06-26T05:47:41.761Z,40.57
2019-06-26T05:50:11.228Z,27.13
2019-06-26T05:52:42.552Z,20.07
2019-06-26T05:55:10.525Z,23.37
2019-06-26T05:57:41.777Z,28.30
2019-06-26T06:00:10.007Z,22.57
2019-06-26T06:02:38.425Z,19.20
2019-06-26T06:05:08.254Z,18.77
2019-06-26T06:07:36.671Z,23.70
2019-06-26T06:10:08.130Z,20.47
2019-06-26T06:12:36.826Z,19.03
2019-06-26T06:15:08.912Z,17.23
2019-06-26T06:17:37.647Z,21.83
2019-06-26T06:20:08.380Z,19.17
2019-06-26T06:22:36.973Z,37.70
2019-06-26T06:25:06.218Z,22.63
2019-06-26T06:27:34.793Z,20.20
2019-06-26T06:30:05.004Z,22.57
2019-06-26T06:32:33.475Z,22.10
2019-06-26T06:35:01.938Z,14.53
2019-06-26T06:37:30.456Z,15.27
2019-06-26T06:39:58.891Z,14.93
2019-06-26T06:42:27.360Z,15.57
2019-06-26T06:44:55.797Z,14.60
2019-06-26T06:47:24.263Z,14.93
2019-06-26T06:49:52.683Z,16.13
2019-06-26T06:52:21.177Z,21.53
2019-06-26T06:54:49.694Z,12.97
2019-06-26T06:57:18.167Z,12.70
2019-06-26T06:59:46.604Z,14.43
2019-06-26T07:02:15.062Z,12.43
2019-06-26T07:04:43.541Z,10.87
2019-06-26T07:07:12.057Z,11.67
2019-06-26T07:09:40.481Z,10.83
2019-06-26T07:12:08.921Z,10.27
2019-06-26T07:14:37.422Z,10.67
2019-06-26T07:17:19.301Z,10.30
2019-06-26T07:19:36.022Z,10.10
2019-06-26T07:22:07.233Z,10.10
2019-06-26T07:24:34.619Z,13.00
2019-06-26T07:27:03.006Z,13.40
2019-06-26T07:29:31.434Z,10.10
2019-06-26T07:31:59.834Z,9.60
2019-06-26T07:34:28.246Z,9.37
2019-06-26T07:36:56.652Z,9.33
2019-06-26T07:39:25.073Z,9.40
2019-06-26T07:41:53.467Z,10.23
2019-06-26T07:44:21.885Z,10.40
2019-06-26T07:46:50.279Z,11.03
2019-06-26T07:49:18.690Z,10.50
2019-06-26T07:51:47.081Z,9.27
2019-06-26T07:54:15.509Z,10.73
2019-06-26T07:56:43.905Z,11.00
2019-06-26T07:59:12.404Z,10.60
2019-06-26T08:01:40.816Z,11.30
2019-06-26T08:04:09.279Z,11.50
2019-06-26T08:06:37.739Z,11.73
2019-06-26T08:09:07.420Z,10.57
2019-06-26T08:11:35.824Z,10.73
2019-06-26T08:14:04.306Z,11.63
2019-06-26T08:16:34.465Z,11.57
2019-06-26T08:19:02.895Z,10.07
2019-06-26T08:21:31.347Z,9.90
2019-06-26T08:23:59.906Z,10.37
2019-06-26T08:26:28.323Z,10.03
2019-06-26T08:28:56.751Z,9.80
2019-06-26T08:31:25.148Z,9.70
2019-06-26T08:33:53.568Z,9.17
2019-06-26T08:36:21.963Z,9.60
2019-06-26T08:38:50.375Z,9.30
2019-06-26T08:41:18.780Z,8.90
2019-06-26T08:43:47.189Z,9.37
2019-06-26T08:46:15.586Z,9.00
2019-06-26T08:48:44.000Z,9.37
2019-06-26T08:51:12.411Z,9.00
2019-06-26T08:53:40.832Z,8.53
2019-06-26T08:56:09.233Z,9.57
2019-06-26T08:58:37.648Z,9.50
2019-06-26T09:01:06.047Z,8.20
2019-06-26T09:03:34.469Z,9.10
2019-06-26T09:06:02.853Z,9.43
2019-06-26T09:08:31.337Z,9.10
2019-06-26T09:10:59.773Z,8.93
2019-06-26T09:13:28.187Z,9.23
2019-06-26T09:15:56.631Z,8.23
2019-06-26T09:18:34.819Z,8.80
2019-06-26T09:20:55.197Z,8.20
2019-06-26T09:23:23.608Z,8.80
2019-06-26T09:25:52.101Z,7.90
2019-06-26T09:28:20.510Z,8.17
2019-06-26T09:30:48.925Z,8.00
2019-06-26T09:33:17.330Z,7.37
2019-06-26T09:35:45.749Z,8.20
2019-06-26T09:38:14.148Z,7.53
2019-06-26T09:40:42.548Z,6.10
2019-06-26T09:46:39.497Z,6.10
2019-06-26T09:49:07.901Z,6.63
2019-06-26T09:51:36.292Z,6.47
2019-06-26T09:54:04.777Z,6.07
2019-06-26T09:56:33.174Z,6.20
2019-06-26T09:59:01.691Z,6.10
2019-06-26T10:01:30.053Z,6.03
2019-06-26T10:03:58.453Z,6.33
2019-06-26T10:06:26.845Z,5.93
2019-06-26T10:08:55.247Z,6.03
2019-06-26T10:11:23.634Z,6.23
2019-06-26T10:13:52.027Z,6.23
2019-06-26T10:16:20.429Z,6.87
2019-06-26T10:18:48.801Z,7.13
2019-06-26T10:21:17.188Z,6.30
2019-06-26T10:23:45.577Z,6.70
2019-06-26T10:26:13.969Z,6.20
2019-06-26T10:28:42.378Z,6.97
2019-06-26T10:31:10.774Z,6.37
2019-06-26T10:33:39.189Z,6.70
2019-06-26T10:36:07.577Z,5.97
2019-06-26T10:38:35.967Z,5.90
2019-06-26T10:41:04.360Z,5.47
2019-06-26T10:43:32.748Z,6.30
2019-06-26T10:46:01.152Z,5.63
2019-06-26T10:48:29.578Z,6.07
2019-06-26T10:50:58.998Z,5.27
2019-06-26T10:53:27.634Z,6.00
2019-06-26T10:55:56.028Z,6.70
2019-06-26T10:58:24.415Z,5.80
2019-06-26T11:00:52.815Z,5.70
2019-06-26T11:03:21.197Z,6.30
2019-06-26T11:05:49.597Z,5.67
2019-06-26T11:08:17.998Z,6.10
2019-06-26T11:10:46.477Z,6.77
2019-06-26T11:13:15.051Z,6.60
2019-06-26T11:15:43.441Z,6.30
2019-06-26T11:18:11.833Z,6.10
2019-06-26T11:20:40.803Z,6.37
2019-06-26T11:23:09.182Z,6.07
2019-06-26T11:25:37.692Z,6.20
2019-06-26T11:28:06.144Z,6.83
2019-06-26T11:34:02.849Z,7.10
2019-06-26T11:36:32.770Z,6.43
2019-06-26T11:39:01.190Z,6.67
2019-06-26T11:41:29.688Z,7.20
2019-06-26T11:43:58.083Z,5.87
2019-06-26T11:46:26.504Z,6.57
2019-06-26T11:48:54.934Z,6.50
2019-06-26T11:51:23.355Z,6.77
2019-06-26T11:53:51.754Z,6.90
2019-06-26T11:56:20.171Z,7.30
2019-06-26T11:58:48.580Z,6.83
2019-06-26T12:01:17.008Z,6.60
2019-06-26T12:03:45.450Z,6.80
2019-06-26T12:06:18.920Z,7.10
2019-06-26T12:08:44.028Z,7.03
2019-06-26T12:11:12.445Z,7.00
2019-06-26T12:13:40.857Z,6.97
2019-06-26T12:16:09.271Z,6.40
2019-06-26T12:18:37.669Z,6.73
2019-06-26T12:21:06.090Z,7.20
2019-06-26T12:23:34.498Z,7.23
2019-06-26T12:26:02.912Z,7.33
2019-06-26T12:28:31.324Z,7.07
2019-06-26T12:30:59.786Z,6.80
2019-06-26T12:33:28.238Z,7.17
2019-06-26T12:35:57.430Z,7.10
2019-06-26T12:38:25.839Z,6.80
2019-06-26T12:40:54.252Z,7.30
2019-06-26T12:43:22.674Z,7.20
2019-06-26T12:45:51.105Z,7.53
2019-06-26T12:48:19.519Z,7.07
2019-06-26T12:50:47.952Z,6.87
2019-06-26T12:53:16.394Z,8.07
2019-06-26T12:55:44.822Z,6.70
2019-06-26T12:58:18.122Z,7.77
2019-06-26T13:00:43.377Z,7.53
2019-06-26T13:03:11.802Z,8.80
2019-06-26T13:05:40.213Z,6.87
2019-06-26T13:08:08.639Z,7.10
2019-06-26T13:10:48.856Z,10.37
2019-06-26T13:13:07.188Z,7.30
2019-06-26T13:15:35.593Z,11.87
2019-06-26T13:18:04.053Z,7.43
2019-06-26T13:20:32.542Z,9.43
2019-06-26T13:23:00.994Z,8.93
2019-06-26T13:25:29.400Z,7.97
2019-06-26T13:27:57.842Z,7.97
2019-06-26T13:30:29.317Z,7.00
2019-06-26T13:32:57.747Z,8.60
2019-06-26T13:35:26.151Z,7.33
2019-06-26T13:37:54.559Z,7.60
2019-06-26T13:40:22.970Z,7.07
2019-06-26T13:42:51.390Z,7.70
2019-06-26T13:45:19.831Z,7.90
2019-06-26T13:47:48.562Z,7.87
2019-06-26T13:50:17.399Z,7.93
2019-06-26T13:52:45.828Z,7.70
2019-06-26T13:55:14.362Z,7.60
2019-06-26T13:57:42.800Z,8.33
2019-06-26T14:00:11.949Z,7.37
2019-06-26T14:02:40.433Z,8.30
2019-06-26T14:05:09.574Z,7.83
2019-06-26T14:07:39.320Z,7.93
2019-06-26T14:10:08.900Z,8.23
2019-06-26T14:12:37.360Z,8.53
2019-06-26T14:15:07.351Z,7.80
2019-06-26T14:17:35.824Z,7.50
2019-06-26T14:20:06.369Z,8.07
2019-06-26T14:22:34.771Z,8.00
2019-06-26T14:25:03.359Z,7.70
2019-06-26T14:27:31.753Z,7.80
2019-06-26T14:30:00.330Z,8.47
2019-06-26T14:32:28.941Z,9.53
2019-06-26T14:34:57.374Z,8.83
2019-06-26T14:37:25.770Z,8.20
2019-06-26T14:39:54.194Z,8.30
2019-06-26T14:42:22.593Z,9.10
2019-06-26T14:44:52.819Z,7.67
2019-06-26T14:47:21.134Z,7.87
2019-06-26T14:49:49.547Z,7.33
2019-06-26T14:52:17.975Z,7.80
2019-06-26T14:54:46.444Z,7.87
2019-06-26T14:57:14.855Z,7.67
2019-06-26T14:59:43.268Z,7.40
2019-06-26T15:02:11.679Z,7.43
2019-06-26T15:04:40.167Z,7.70
2019-06-26T15:07:08.587Z,8.03
2019-06-26T15:09:37.026Z,7.67
2019-06-26T15:12:05.431Z,7.70
2019-06-26T15:14:33.843Z,7.47
2019-06-26T15:17:02.257Z,7.63
2019-06-26T15:19:30.676Z,7.90
2019-06-26T15:21:59.159Z,8.17
2019-06-26T15:24:54.702Z,9.20
2019-06-26T15:27:23.131Z,7.67
2019-06-26T15:29:51.526Z,7.83
2019-06-26T15:36:34.173Z,7.83
2019-06-26T15:39:05.427Z,8.77
2019-06-26T15:41:33.838Z,7.27
2019-06-26T15:44:02.288Z,7.80
2019-06-26T15:46:30.718Z,7.23
2019-06-26T15:48:59.116Z,7.27
2019-06-26T15:51:27.524Z,7.20
2019-06-26T15:53:55.923Z,8.10
2019-06-26T15:56:24.352Z,8.13
2019-06-26T15:58:52.752Z,7.87
2019-06-26T16:01:21.167Z,7.87
2019-06-26T16:03:49.620Z,8.03
2019-06-26T16:06:18.020Z,7.70
2019-06-26T16:08:46.434Z,8.10
2019-06-26T16:11:14.826Z,7.37
2019-06-26T16:13:43.252Z,7.13
2019-06-26T16:16:11.698Z,8.50
2019-06-26T16:18:44.710Z,7.73
2019-06-26T16:21:13.103Z,7.70
2019-06-26T16:23:41.515Z,7.50
2019-06-26T16:26:09.947Z,7.47
2019-06-26T16:28:38.350Z,7.40
2019-06-26T16:31:06.742Z,7.47
2019-06-26T16:33:35.204Z,7.57
2019-06-26T16:36:03.614Z,7.40
2019-06-26T16:38:32.010Z,7.50
2019-06-26T16:41:00.409Z,7.70
2019-06-26T16:43:28.842Z,7.93
2019-06-26T16:45:57.239Z,7.23
2019-06-26T16:48:25.703Z,7.73
2019-06-26T16:50:54.090Z,7.50
2019-06-26T16:53:22.498Z,7.60
2019-06-26T16:55:50.900Z,7.10
2019-06-26T16:58:19.311Z,7.87
2019-06-26T17:01:51.613Z,7.30
2019-06-26T17:04:20.021Z,7.63
2019-06-26T17:06:48.415Z,8.00
2019-06-26T17:09:16.831Z,7.53
2019-06-26T17:11:45.241Z,7.17
2019-06-26T17:14:14.526Z,7.67
2019-06-26T17:16:42.931Z,7.70
2019-06-26T17:19:11.392Z,7.93
2019-06-26T17:21:39.791Z,8.07
2019-06-26T17:24:08.466Z,8.10
2019-06-26T17:26:36.875Z,8.20
2019-06-26T17:29:05.417Z,7.43
2019-06-26T17:31:33.827Z,7.37
2019-06-26T17:34:02.223Z,8.43
2019-06-26T17:36:30.630Z,7.40
2019-06-26T17:38:59.017Z,8.30
2019-06-26T17:41:27.439Z,7.53
2019-06-26T17:43:55.831Z,7.77
2019-06-26T17:46:24.230Z,7.37
2019-06-26T17:48:52.677Z,7.83
2019-06-26T17:51:21.122Z,7.53
2019-06-26T17:53:49.519Z,8.13
2019-06-26T17:56:17.937Z,7.97
2019-06-26T17:58:46.344Z,8.03
2019-06-26T18:01:14.763Z,8.40
2019-06-26T18:03:43.159Z,8.03
2019-06-26T18:06:11.574Z,7.80
2019-06-26T18:08:39.966Z,7.30
2019-06-26T18:11:08.369Z,9.23
2019-06-26T18:13:36.796Z,9.27
2019-06-26T18:16:05.209Z,7.77
2019-06-26T18:18:33.648Z,8.87
2019-06-26T18:21:02.088Z,8.47
2019-06-26T18:23:37.701Z,7.87
2019-06-26T18:26:12.538Z,8.33
2019-06-26T18:28:30.745Z,25.43
2019-06-26T18:30:59.175Z,9.97
2019-06-26T18:33:27.633Z,8.77
2019-06-26T18:35:56.028Z,7.93
2019-06-26T18:38:24.439Z,9.37
2019-06-26T18:40:52.847Z,8.23
2019-06-26T18:43:21.250Z,8.53
2019-06-26T18:45:49.673Z,8.93
2019-06-26T18:48:18.076Z,10.13
2019-06-26T18:51:16.960Z,8.77
2019-06-26T18:53:53.392Z,9.50
2019-06-26T18:56:16.042Z,9.90
2019-06-26T18:58:44.602Z,8.07
2019-06-26T19:01:13.002Z,8.90
2019-06-26T19:03:41.394Z,8.30
2019-06-26T19:06:09.802Z,9.20
2019-06-26T19:08:38.214Z,8.10
2019-06-26T19:11:06.631Z,8.10
2019-06-26T19:13:35.017Z,8.90
2019-06-26T19:16:04.648Z,8.40
2019-06-26T19:18:33.402Z,7.70
2019-06-26T19:21:01.821Z,8.20
2019-06-26T19:23:30.291Z,8.60
2019-06-26T19:25:58.685Z,9.10
2019-06-26T19:28:27.103Z,8.53
2019-06-26T19:30:55.492Z,8.43
2019-06-26T19:33:23.962Z,8.27
2019-06-26T19:35:52.511Z,8.37
2019-06-26T19:38:21.034Z,7.93
2019-06-26T19:40:49.436Z,8.70
2019-06-26T19:43:17.842Z,8.93
2019-06-26T19:45:46.251Z,8.43
2019-06-26T19:48:14.652Z,9.10
2019-06-26T19:50:43.050Z,10.10
2019-06-26T19:53:11.471Z,10.07
2019-06-26T19:55:39.869Z,9.30
2019-06-26T19:58:08.287Z,8.97
2019-06-26T20:00:36.679Z,9.10
2019-06-26T20:03:05.107Z,9.27
2019-06-26T20:06:16.371Z,10.57
2019-06-26T20:08:54.394Z,10.03
2019-06-26T20:11:14.899Z,10.03
2019-06-26T20:13:43.310Z,43.97
2019-06-26T20:16:11.746Z,41.83
2019-06-26T20:18:40.149Z,32.87
2019-06-26T20:21:08.552Z,23.67
2019-06-26T20:23:36.972Z,12.83
2019-06-26T20:26:05.374Z,12.60
2019-06-26T20:28:33.802Z,12.93
2019-06-26T20:31:02.589Z,18.40
2019-06-26T20:33:31.184Z,14.93
2019-06-26T20:35:59.641Z,14.17
2019-06-26T20:38:28.054Z,13.47
2019-06-26T20:40:56.453Z,17.77
2019-06-26T20:43:24.866Z,15.13
2019-06-26T20:45:53.338Z,16.37
2019-06-26T20:48:21.750Z,18.77
2019-06-26T20:50:50.158Z,15.40
2019-06-26T20:53:18.573Z,17.43
2019-06-26T20:55:46.975Z,16.77
2019-06-26T20:58:15.411Z,14.77
2019-06-26T21:00:43.866Z,16.30
2019-06-26T21:03:12.290Z,16.50
2019-06-26T21:05:40.674Z,16.43
2019-06-26T21:08:09.082Z,19.07
2019-06-26T21:10:37.534Z,16.53
2019-06-26T21:13:05.967Z,19.73
2019-06-26T21:15:34.371Z,14.60
2019-06-26T21:18:02.930Z,20.60
2019-06-26T21:20:31.365Z,18.90
2019-06-26T21:22:59.919Z,13.80
2019-06-26T21:25:28.313Z,16.73
2019-06-26T21:27:56.722Z,21.83
2019-06-26T21:30:25.189Z,50.53
2019-06-26T21:32:53.588Z,52.20
2019-06-26T21:35:21.999Z,33.93
2019-06-26T21:37:50.406Z,29.70
2019-06-26T21:40:19.073Z,43.53
2019-06-26T21:42:47.558Z,16.10
2019-06-26T21:45:20.068Z,53.00
2019-06-26T21:47:47.931Z,19.77
2019-06-26T21:50:16.404Z,30.77
2019-06-26T21:52:44.807Z,28.93
2019-06-26T21:55:13.290Z,13.67
2019-06-26T21:57:41.704Z,27.70
2019-06-26T22:00:11.519Z,14.43
2019-06-26T22:02:39.922Z,13.70
2019-06-26T22:05:09.538Z,20.67
2019-06-26T22:07:38.312Z,26.23
2019-06-26T22:10:07.470Z,19.43
2019-06-26T22:12:35.902Z,24.97
2019-06-26T22:15:09.866Z,26.13
2019-06-26T22:17:38.334Z,17.40
2019-06-26T22:20:12.357Z,36.43
2019-06-26T22:22:38.710Z,20.40
2019-06-26T22:25:07.822Z,19.47
2019-06-26T22:27:36.202Z,19.47
2019-06-26T22:30:07.159Z,29.50
2019-06-26T22:32:35.796Z,29.97
2019-06-26T22:35:05.834Z,18.60
2019-06-26T22:37:35.776Z,21.47
2019-06-26T22:40:05.315Z,16.00
2019-06-26T22:42:33.794Z,23.20
2019-06-26T22:45:02.206Z,14.50
2019-06-26T22:47:30.614Z,20.73
2019-06-26T22:49:59.045Z,16.63
2019-06-26T22:52:27.445Z,16.93
2019-06-26T22:54:57.437Z,17.20
2019-06-26T22:57:25.886Z,30.40
2019-06-26T22:59:54.295Z,20.33
2019-06-26T23:02:22.700Z,15.33
2019-06-26T23:04:51.149Z,23.80
2019-06-26T23:07:19.600Z,26.60
2019-06-26T23:09:48.024Z,16.57
2019-06-26T23:12:16.927Z,22.90
2019-06-26T23:14:45.344Z,15.90
2019-06-26T23:17:15.322Z,14.83
2019-06-26T23:19:43.721Z,15.77
2019-06-26T23:22:12.125Z,20.90
2019-06-26T23:24:40.529Z,17.97
2019-06-26T23:27:08.951Z,16.47
2019-06-26T23:29:37.424Z,19.10
2019-06-26T23:32:05.847Z,17.17
2019-06-26T23:34:34.253Z,15.90
2019-06-26T23:37:02.673Z,15.67
2019-06-26T23:39:31.137Z,16.87
2019-06-26T23:41:59.577Z,18.97
2019-06-26T23:44:27.986Z,17.83
2019-06-26T23:46:56.428Z,17.57
2019-06-26T23:49:24.871Z,17.40
2019-06-26T23:51:53.300Z,17.00
2019-06-26T23:54:21.708Z,15.97
2019-06-26T23:56:50.123Z,17.43
2019-06-26T23:59:18.527Z,16.77
